Valley Peak, Santa Cruz Island Reserve, California Weather observations

Data are for 10 minute period ending at time listed.
 Day   Time   Solar   Ave.   Ave.  Ave.  Vector  Max.   Baro.   Total    
  of    of     Rad.   Air    Rel.  Wind   Wind   Wind  Press.  Precip.   
Year   Day            Temp.  Hum.  Speed  Dir.   Gust                    
2015   (PST)  Kw/m2    F      %     mph   deg.    mph    mb.     in.     
-------------------------------------------------------------------------
 209   10:20   0.87   74.4    62    4.9   125     9.5   963.7    0.00 
 209   10:30   0.88   73.4    64    4.3   128     9.1   963.7    0.00 
 209   10:40   0.90   74.4    62    3.5   112     9.6   963.8    0.00 
 209   10:50   0.91   74.7    62    3.9   113     9.3   963.7    0.00 
 209   11:00   0.91   75.7    60    4.4   128     8.6   963.7    0.00 
 209   11:10   0.93   74.4    63    5.2   114    10.8   963.8    0.00 
 209   11:20   0.93   75.9    60    3.6   100     7.4   963.7    0.00 
 209   11:30   0.94   76.6    59    4.4    86     9.2   963.7    0.00 
 209   11:40   0.94   76.4    60    4.8    98     9.3   963.7    0.00 
 209   11:50   0.94   75.7    61    4.5   111     8.8   963.7    0.00 
 209   12:00   0.94   75.2    62    4.5   109     9.4   963.7    0.00 
 209   12:10   0.94   75.9    61    4.3    85     7.5   963.7    0.00 
 209   12:20   0.94   76.6    60    3.8    86     7.9   963.7    0.00 
 209   12:30   0.94   76.2    60    3.7    77     7.2   963.7    0.00 
 209   12:40   0.93   76.7    60    2.7    54     6.3   963.7    0.00 
 209   12:50   0.93   77.0    59    3.7    64     6.6   963.7    0.00 
 209   13:00   0.92   78.7    56    4.1    63     6.7   963.7    0.00 
 209   13:10   0.91   77.4    59    3.9    50     6.7   963.8    0.00 
 209   13:20   0.90   75.6    61    3.5    45     7.5   963.9    0.00 
 209   13:30   0.89   76.0    61    3.8    41     7.3   963.8    0.00 
 209   13:40   0.88   74.9    63    5.2    42     8.8   963.7    0.00 
 209   13:50   0.86   74.4    64    5.6    44     8.6   963.5    0.00 
 209   14:00   0.84   74.2    64    5.6    39     9.0   963.5    0.00 
 209   14:10   0.83   74.5    64    6.3    39     8.8   963.5    0.00 
 209   14:20   0.81   74.3    64    5.9    41     8.8   963.3    0.00 
 209   14:30   0.78   74.9    63    5.4    40     8.0   963.2    0.00 
 209   14:40   0.76   73.7    65    5.6    40     8.3   963.1    0.00 
 209   14:50   0.74   74.5    63    5.2    41     8.8   963.0    0.00 
 209   15:00   0.71   75.0    62    4.8    40     7.9   963.0    0.00 
 209   15:10   0.68   73.7    64    4.3    42     6.6   962.9    0.00 
 209   15:20   0.65   73.5    65    4.6    37     7.8   962.8    0.00 
 209   15:30   0.62   72.2    68    4.9    40     6.9   962.6    0.00 
 209   15:40   0.59   71.7    69    5.4    34     9.3   962.5    0.00 
 209   15:50   0.56   70.5    71    6.5    28     9.0   962.3    0.00 
 209   16:00   0.53   69.1    74    7.3    27    10.0   962.2    0.00 
 209   16:10   0.50   69.5    74    7.6    27     9.8   962.3    0.00 
 209   16:20   0.47   69.7    73    7.5    27     9.5   962.2    0.00 
 209   16:30   0.43   69.8    73    7.6    31     9.4   962.1    0.00 
 209   16:40   0.40   68.9    75    7.4    29     9.8   962.0    0.00 
 209   16:50   0.37   68.7    75    6.0    31     7.3   961.9    0.00 
 209   17:00   0.33   69.7    73    4.9    31     6.4   961.9    0.00 
 209   17:10   0.30   71.3    70    4.3    30     5.8   961.9    0.00 
 209   17:20   0.26   70.1    72    5.2    20     7.5   961.8    0.00 
 209   17:30   0.23   68.1    76    6.4    10     8.8   961.8    0.00 
 209   17:40   0.20   67.9    76    6.1    12     7.7   961.7    0.00 
 209   17:50   0.17   67.3    77    6.9   357     9.0   961.7    0.00 
 209   18:00   0.14   68.3    74    5.6   343     7.5   961.7    0.00 
 209   18:10   0.11   70.3    69    3.8   338     5.3   961.7    0.00 
 209   18:20   0.08   69.8    70    4.1   338     5.5   961.8    0.00 
 209   18:30   0.06   68.9    72    3.9   336     4.6   961.9    0.00 
 209   18:40   0.03   68.1    74    4.3   315     5.1   961.9    0.00 
 209   18:50   0.01   67.3    75    6.0   329     8.7   961.9    0.00 
 209   19:00   0.00   66.5    74    8.7   338    10.1   961.9    0.00 
 209   19:10   0.00   66.6    71    7.7   337     9.3   962.0    0.00 
 209   19:20   0.00   67.4    68    7.3   334     8.9   962.1    0.00 
 209   19:30   0.00   67.9    67    6.0   330     8.7   962.2    0.00 
 209   19:40   0.00   67.9    68    4.9   319     6.1   962.3    0.00 
 209   19:50   0.00   68.2    69    4.6   334     5.3   962.4    0.00 
 209   20:00   0.00   68.3    67    5.1   342     6.4   962.5    0.00 
 209   20:10   0.00   68.3    65    5.4   334     6.8   962.6    0.00 
 209   20:20   0.00   68.3    63    5.6   323     7.0   962.7    0.00 
 209   20:30   0.00   68.7    61    5.0   321     6.4   962.7    0.00 
 209   20:40   0.00   68.1    62    6.5   328     7.4   962.9    0.00 
 209   20:50   0.00   68.1    63    5.6   322     7.5   963.0    0.00 
 209   21:00   0.00   68.4    60    3.4   324     4.3   963.1    0.00 
 209   21:10   0.00   69.0    58    3.7   321     4.4   963.2    0.00 
 209   21:20   0.00   69.3    58    3.1   315     3.9   963.2    0.00 
 209   21:30   0.00   69.5    58    2.6   320     3.2   963.3    0.00 
 209   21:40   0.00   69.2    60    1.2   274     2.0   963.4    0.00 
 209   21:50   0.00   68.4    66    2.7   204     3.6   963.5    0.00 
 209   22:00   0.00   67.2    68    3.0   184     3.8   963.5    0.00 
 209   22:10   0.00   67.3    67    3.9   183     4.4   963.5    0.00 
 209   22:20   0.00   67.6    67    3.5   190     4.5   963.6    0.00 
 209   22:30   0.00   66.9    69    5.0   192     6.4   963.6    0.00 
 209   22:40   0.00   65.2    81    6.5   179     7.7   963.7    0.00 
 209   22:50   0.00   61.9    96    6.5   164     7.2   963.8    0.00 
 209   23:00   0.00   61.5    98    6.4   170     7.2   963.8    0.00 
 209   23:10   0.00   61.2    98    6.7   160     7.6   963.9    0.00 
 209   23:20   0.00   61.1    99    6.4   134     7.9   963.9    0.00 
 209   23:30   0.00   61.0    99    7.9   134    10.4   963.9    0.00 
 209   23:40   0.00   61.2    99    7.9   140    10.0   963.9    0.00 
 209   23:50   0.00   61.0    99    8.0   137    10.9   963.9    0.00 
 210    0:00   0.00   61.0   100    8.0   143    11.1   963.9    0.00 
 210    0:10   0.00   60.9   100    8.3   141    12.9   963.9    0.00 
 210    0:20   0.00   60.6   100    7.9   139    11.2   963.9    0.00 
 210    0:30   0.00   60.3   100    7.9   139    11.0   963.9    0.00 
 210    0:40   0.00   60.0   100    7.9   140    11.3   964.0    0.00 
 210    0:50   0.00   59.9   100    8.3   143    11.5   963.9    0.00 
 210    1:00   0.00   59.9   100    8.0   146    11.0   963.8    0.00 
 210    1:10   0.00   59.8   100    8.4   142    11.4   963.7    0.00 
 210    1:20   0.00   59.7   100    8.5   136    12.1   963.7    0.00 
 210    1:30   0.00   59.7   100    9.0   133    13.2   963.5    0.00 
 210    1:40   0.00   59.8   100    8.1   133    11.0   963.5    0.00 
 210    1:50   0.00   59.8   100    8.1   139    10.3   963.5    0.00 
 210    2:00   0.00   59.8   100    4.9   131     8.9   963.5    0.00 
 210    2:10   0.00   60.0   100    2.9   109     5.8   963.5    0.00 
 210    2:20   0.00   60.0   100    4.0   103     5.8   963.5    0.00 
 210    2:30   0.00   59.9   100    3.9   118     6.9   963.5    0.00 
 210    2:40   0.00   59.2   100    3.0    86     6.3   963.6    0.00 
 210    2:50   0.00   58.9   100    2.6    60     4.3   963.7    0.00 
 210    3:00   0.00   58.6   100    2.3    62     3.4   963.6    0.00 
 210    3:10   0.00   58.7   100    2.4   115     6.1   963.5    0.00 
 210    3:20   0.00   59.3   100    3.5   132     7.1   963.5    0.00 
 210    3:30   0.00   59.4   100    1.9   107     4.9   963.6    0.00 
 210    3:40   0.00   59.1   100    2.6    61     4.0   963.7    0.00 
 210    3:50   0.00   58.9   100    1.8    60     4.7   963.6    0.00 
 210    4:00   0.00   58.6   100    1.9    49     3.7   963.6    0.00 
 210    4:10   0.00   58.7   100    2.7   134     5.3   963.6    0.00 
 210    4:20   0.00   59.1   100    2.7   145     6.6   963.7    0.00 
 210    4:30   0.00   59.1   100    3.7   146     7.5   963.8    0.00 
 210    4:40   0.00   59.3   100    2.3   161     4.5   963.8    0.00 
 210    4:50   0.00   59.3   100    1.5   144     4.7   963.9    0.00 
 210    5:00   0.00   59.3   100    2.0   115     4.7   964.0    0.00 
 210    5:10   0.00   59.0   100    1.5    58     3.0   964.0    0.00 
 210    5:20   0.00   58.6   100    3.5    31     5.3   964.0    0.00 
 210    5:30   0.00   58.5   100    2.4    38     5.0   964.2    0.00 
 210    5:40   0.01   58.4   100    1.8    10     4.1   964.2    0.00 
 210    5:50   0.01   58.3   100    2.6     8     5.6   964.3    0.00 
 210    6:00   0.02   58.4   100    3.3    33     6.2   964.3    0.00 
 210    6:10   0.03   58.7   100    2.4    47     4.6   964.4    0.00 
 210    6:20   0.04   58.9   100    2.4    37     5.0   964.5    0.00 
 210    6:30   0.05   58.9   100    4.1    34     6.7   964.4    0.00 
 210    6:40   0.06   59.1   100    3.8    46     6.8   964.5    0.00 
 210    6:50   0.07   59.1   100    3.1    45     7.1   964.6    0.00 
 210    7:00   0.08   59.3   100    1.7    63     4.5   964.7    0.00 
 210    7:10   0.10   59.2   100    1.1    35     3.8   964.7    0.00 
 210    7:20   0.14   59.8   100    1.3   326     2.9   964.6    0.00 
 210    7:30   0.16   59.7   100    2.2   324     5.2   964.6    0.00 
 210    7:40   0.18   60.7   100    1.5    59     4.9   964.7    0.00 
 210    7:50   0.21   61.1    99    1.2    76     3.1   964.8    0.00 
 210    8:00   0.23   61.2    99    2.2   220     3.7   964.9    0.00 
 210    8:10   0.24   60.7    99    2.4   242     4.7   964.9    0.00 
 210    8:20   0.28   61.1    99    2.4   216     5.8   965.0    0.00 
 210    8:30   0.45   61.3    98    2.3   191     5.0   965.0    0.00 
 210    8:40   0.37   63.1    96    2.9   170     6.3   965.1    0.00 
 210    8:50   0.44   64.3    93    2.8   146     6.5   965.0    0.00 
 210    9:00   0.51   64.3    89    3.2   201     6.1   965.0    0.00 
 210    9:10   0.72   65.0    84    2.8   196     5.8   964.9    0.00 
 210    9:20   0.75   68.4    76    3.2   156     7.6   965.1    0.00 
 210    9:30   0.77   69.3    74    2.4   154     5.8   965.1    0.00 
 210    9:40   0.79   69.3    73    2.0   139     5.6   965.0    0.00 
 210    9:50   0.81   70.2    72    3.5   137     8.1   965.2    0.00 
 210   10:00   0.83   70.9    71    3.4   144     8.2   965.1    0.00 
 210   10:10   0.85   72.1    68    3.7   140     8.3   965.1    0.00 

Return to Valley Peak, Santa Cruz Island Reserve graphs page.


Western Regional Climate Center,wrcc@dri.edu